Airport View

Enter AWOS ICAO identifier for current METAR.

ex. KFNL

KSRR 171215Z AUTO 17006KT 10SM CLR 03/M07 A3026 RMK AO2

17 Nov 2019 12:17

Frequency: 126.475

Phone: 575-336-8455

Other Area AWOS: KALM - KHMN - KROW - KATS

TAF KHMN 170100Z 1701/1801 VRB06KT 9999 FEW250 QNH3006INS BECMG 1716/1717 23010G15KT 9999 SKC QNH3007INS BECMG 1802/1803 VRB06KT 9999 SKC QNH3014INS BECMG 1802/1803 VRB06KT 9999 SKC QNH3010INS TX15/1722Z TN00/1714Z LAST NO AMDS AFT 1705 NEXT 1809